sensor_id;sensor_type;location;lat;lon;timestamp;P1;durP1;ratioP1;P2;durP2;ratioP2
20084;SDS011;10202;48.474;9.138;2022-07-11T00:01:42;4.60;;;1.17;;
20084;SDS011;10202;48.474;9.138;2022-07-11T00:04:08;1.52;;;1.20;;
20084;SDS011;10202;48.474;9.138;2022-07-11T00:06:33;2.10;;;1.20;;
20084;SDS011;10202;48.474;9.138;2022-07-11T00:08:59;2.30;;;1.30;;
20084;SDS011;10202;48.474;9.138;2022-07-11T00:11:24;2.25;;;1.30;;
20084;SDS011;10202;48.474;9.138;2022-07-11T00:13:50;2.80;;;1.20;;
20084;SDS011;10202;48.474;9.138;2022-07-11T00:16:15;2.45;;;1.20;;
20084;SDS011;10202;48.474;9.138;2022-07-11T00:18:41;2.00;;;1.30;;
20084;SDS011;10202;48.474;9.138;2022-07-11T00:21:06;2.30;;;1.33;;
20084;SDS011;10202;48.474;9.138;2022-07-11T00:23:31;2.75;;;1.52;;
20084;SDS011;10202;48.474;9.138;2022-07-11T00:25:57;2.80;;;1.42;;
20084;SDS011;10202;48.474;9.138;2022-07-11T00:28:22;1.27;;;1.10;;
20084;SDS011;10202;48.474;9.138;2022-07-11T00:30:48;2.67;;;1.20;;
20084;SDS011;10202;48.474;9.138;2022-07-11T00:33:14;5.00;;;1.40;;
20084;SDS011;10202;48.474;9.138;2022-07-11T00:35:39;5.00;;;1.10;;
20084;SDS011;10202;48.474;9.138;2022-07-11T00:38:04;5.28;;;1.50;;
20084;SDS011;10202;48.474;9.138;2022-07-11T00:40:30;2.08;;;1.10;;
20084;SDS011;10202;48.474;9.138;2022-07-11T00:42:55;3.70;;;1.30;;
20084;SDS011;10202;48.474;9.138;2022-07-11T00:45:21;1.25;;;1.15;;
20084;SDS011;10202;48.474;9.138;2022-07-11T00:47:46;2.90;;;1.40;;
20084;SDS011;10202;48.474;9.138;2022-07-11T00:50:13;1.60;;;1.33;;
20084;SDS011;10202;48.474;9.138;2022-07-11T00:52:38;2.55;;;1.30;;
20084;SDS011;10202;48.474;9.138;2022-07-11T00:55:05;1.58;;;1.25;;
20084;SDS011;10202;48.474;9.138;2022-07-11T00:57:32;2.53;;;1.45;;
20084;SDS011;10202;48.474;9.138;2022-07-11T00:59:57;1.33;;;1.20;;
20084;SDS011;10202;48.474;9.138;2022-07-11T01:02:23;4.50;;;1.60;;
20084;SDS011;10202;48.474;9.138;2022-07-11T01:04:48;1.35;;;1.20;;
20084;SDS011;10202;48.474;9.138;2022-07-11T01:07:14;4.03;;;1.40;;
20084;SDS011;10202;48.474;9.138;2022-07-11T01:09:40;3.30;;;1.30;;
20084;SDS011;10202;48.474;9.138;2022-07-11T01:12:05;1.23;;;1.13;;
20084;SDS011;10202;48.474;9.138;2022-07-11T01:14:31;2.53;;;1.20;;
20084;SDS011;10202;48.474;9.138;2022-07-11T01:16:56;2.95;;;1.10;;
20084;SDS011;10202;48.474;9.138;2022-07-11T01:19:22;5.13;;;1.15;;
20084;SDS011;10202;48.474;9.138;2022-07-11T01:21:48;3.67;;;1.30;;
20084;SDS011;10202;48.474;9.138;2022-07-11T01:24:14;4.28;;;1.30;;
20084;SDS011;10202;48.474;9.138;2022-07-11T01:26:40;2.85;;;1.73;;
20084;SDS011;10202;48.474;9.138;2022-07-11T01:29:08;1.77;;;1.30;;
20084;SDS011;10202;48.474;9.138;2022-07-11T01:31:37;2.17;;;1.20;;
20084;SDS011;10202;48.474;9.138;2022-07-11T01:34:03;5.60;;;1.30;;
20084;SDS011;10202;48.474;9.138;2022-07-11T01:36:30;1.60;;;1.17;;
20084;SDS011;10202;48.474;9.138;2022-07-11T01:38:55;2.55;;;1.30;;
20084;SDS011;10202;48.474;9.138;2022-07-11T01:41:20;2.72;;;1.30;;
20084;SDS011;10202;48.474;9.138;2022-07-11T01:43:46;8.23;;;1.50;;
20084;SDS011;10202;48.474;9.138;2022-07-11T01:46:11;5.43;;;1.63;;
20084;SDS011;10202;48.474;9.138;2022-07-11T01:48:37;2.33;;;1.55;;
20084;SDS011;10202;48.474;9.138;2022-07-11T01:51:02;2.63;;;1.40;;
20084;SDS011;10202;48.474;9.138;2022-07-11T01:53:28;2.90;;;1.77;;
20084;SDS011;10202;48.474;9.138;2022-07-11T01:55:53;2.50;;;1.65;;
20084;SDS011;10202;48.474;9.138;2022-07-11T01:58:18;2.00;;;1.80;;
20084;SDS011;10202;48.474;9.138;2022-07-11T02:00:44;2.35;;;1.88;;
20084;SDS011;10202;48.474;9.138;2022-07-11T02:03:09;4.78;;;1.90;;
20084;SDS011;10202;48.474;9.138;2022-07-11T02:05:35;2.72;;;1.58;;
20084;SDS011;10202;48.474;9.138;2022-07-11T02:08:00;3.42;;;1.65;;
20084;SDS011;10202;48.474;9.138;2022-07-11T02:10:48;4.20;;;1.65;;
20084;SDS011;10202;48.474;9.138;2022-07-11T02:13:15;3.28;;;1.52;;
20084;SDS011;10202;48.474;9.138;2022-07-11T02:15:42;1.88;;;1.40;;
20084;SDS011;10202;48.474;9.138;2022-07-11T02:18:08;3.05;;;1.45;;
20084;SDS011;10202;48.474;9.138;2022-07-11T02:20:35;5.00;;;1.30;;
20084;SDS011;10202;48.474;9.138;2022-07-11T02:23:02;3.00;;;1.50;;
20084;SDS011;10202;48.474;9.138;2022-07-11T02:25:28;2.42;;;1.25;;
20084;SDS011;10202;48.474;9.138;2022-07-11T02:27:54;2.60;;;1.70;;
20084;SDS011;10202;48.474;9.138;2022-07-11T02:30:20;1.50;;;1.20;;
20084;SDS011;10202;48.474;9.138;2022-07-11T02:32:45;4.88;;;1.80;;
20084;SDS011;10202;48.474;9.138;2022-07-11T02:35:11;2.70;;;1.60;;
20084;SDS011;10202;48.474;9.138;2022-07-11T02:37:37;2.67;;;1.60;;
20084;SDS011;10202;48.474;9.138;2022-07-11T02:40:02;4.03;;;1.40;;
20084;SDS011;10202;48.474;9.138;2022-07-11T02:42:28;3.38;;;1.50;;
20084;SDS011;10202;48.474;9.138;2022-07-11T02:44:53;1.95;;;1.30;;
20084;SDS011;10202;48.474;9.138;2022-07-11T02:47:19;4.97;;;1.77;;
20084;SDS011;10202;48.474;9.138;2022-07-11T02:49:44;2.33;;;1.23;;
20084;SDS011;10202;48.474;9.138;2022-07-11T02:52:09;2.75;;;1.30;;
20084;SDS011;10202;48.474;9.138;2022-07-11T02:54:36;2.05;;;1.38;;
20084;SDS011;10202;48.474;9.138;2022-07-11T02:57:01;3.60;;;1.50;;
20084;SDS011;10202;48.474;9.138;2022-07-11T02:59:27;4.07;;;1.50;;
20084;SDS011;10202;48.474;9.138;2022-07-11T03:01:52;2.08;;;1.30;;
20084;SDS011;10202;48.474;9.138;2022-07-11T03:04:18;3.13;;;1.42;;
20084;SDS011;10202;48.474;9.138;2022-07-11T03:06:44;4.05;;;1.70;;
20084;SDS011;10202;48.474;9.138;2022-07-11T03:09:10;2.38;;;1.40;;
20084;SDS011;10202;48.474;9.138;2022-07-11T03:11:36;2.03;;;1.30;;
20084;SDS011;10202;48.474;9.138;2022-07-11T03:14:01;3.47;;;1.30;;
20084;SDS011;10202;48.474;9.138;2022-07-11T03:16:27;4.47;;;1.27;;
20084;SDS011;10202;48.474;9.138;2022-07-11T03:18:53;3.33;;;1.35;;
20084;SDS011;10202;48.474;9.138;2022-07-11T03:21:18;4.15;;;1.70;;
20084;SDS011;10202;48.474;9.138;2022-07-11T03:23:44;2.72;;;1.20;;
20084;SDS011;10202;48.474;9.138;2022-07-11T03:26:09;2.10;;;1.35;;
20084;SDS011;10202;48.474;9.138;2022-07-11T03:28:35;1.00;;;1.00;;
20084;SDS011;10202;48.474;9.138;2022-07-11T03:31:00;1.80;;;1.00;;
20084;SDS011;10202;48.474;9.138;2022-07-11T03:33:25;2.28;;;1.33;;
20084;SDS011;10202;48.474;9.138;2022-07-11T03:35:52;6.28;;;1.13;;
20084;SDS011;10202;48.474;9.138;2022-07-11T03:38:17;2.28;;;1.13;;
20084;SDS011;10202;48.474;9.138;2022-07-11T03:40:45;1.80;;;1.10;;
20084;SDS011;10202;48.474;9.138;2022-07-11T03:43:10;2.88;;;1.30;;
20084;SDS011;10202;48.474;9.138;2022-07-11T03:45:36;1.60;;;1.25;;
20084;SDS011;10202;48.474;9.138;2022-07-11T03:48:02;2.58;;;1.20;;
20084;SDS011;10202;48.474;9.138;2022-07-11T03:50:28;2.75;;;1.20;;
20084;SDS011;10202;48.474;9.138;2022-07-11T03:52:54;1.63;;;1.33;;
20084;SDS011;10202;48.474;9.138;2022-07-11T03:55:20;3.90;;;1.42;;
20084;SDS011;10202;48.474;9.138;2022-07-11T03:58:06;3.38;;;1.40;;
20084;SDS011;10202;48.474;9.138;2022-07-11T04:00:31;2.63;;;1.23;;
20084;SDS011;10202;48.474;9.138;2022-07-11T04:02:57;3.22;;;1.45;;
20084;SDS011;10202;48.474;9.138;2022-07-11T04:05:23;1.50;;;1.25;;
20084;SDS011;10202;48.474;9.138;2022-07-11T04:07:48;2.10;;;1.40;;
20084;SDS011;10202;48.474;9.138;2022-07-11T04:10:14;3.05;;;1.40;;
20084;SDS011;10202;48.474;9.138;2022-07-11T04:12:41;2.90;;;1.45;;
20084;SDS011;10202;48.474;9.138;2022-07-11T04:15:06;2.03;;;1.25;;
20084;SDS011;10202;48.474;9.138;2022-07-11T04:17:32;1.67;;;1.27;;
20084;SDS011;10202;48.474;9.138;2022-07-11T04:19:57;3.97;;;1.45;;
20084;SDS011;10202;48.474;9.138;2022-07-11T04:22:23;2.80;;;1.13;;
20084;SDS011;10202;48.474;9.138;2022-07-11T04:24:49;2.65;;;1.50;;
20084;SDS011;10202;48.474;9.138;2022-07-11T04:27:14;1.77;;;1.55;;
20084;SDS011;10202;48.474;9.138;2022-07-11T04:29:40;4.85;;;1.75;;
20084;SDS011;10202;48.474;9.138;2022-07-11T04:32:05;1.55;;;1.30;;
20084;SDS011;10202;48.474;9.138;2022-07-11T04:34:31;2.60;;;1.48;;
20084;SDS011;10202;48.474;9.138;2022-07-11T04:36:56;2.33;;;1.33;;
20084;SDS011;10202;48.474;9.138;2022-07-11T04:39:22;3.78;;;1.70;;
20084;SDS011;10202;48.474;9.138;2022-07-11T04:41:48;5.65;;;1.80;;
20084;SDS011;10202;48.474;9.138;2022-07-11T04:44:13;4.82;;;1.80;;
20084;SDS011;10202;48.474;9.138;2022-07-11T04:46:38;4.78;;;1.75;;
20084;SDS011;10202;48.474;9.138;2022-07-11T04:49:04;3.00;;;1.67;;
20084;SDS011;10202;48.474;9.138;2022-07-11T04:51:30;4.00;;;1.80;;
20084;SDS011;10202;48.474;9.138;2022-07-11T04:53:55;5.70;;;2.05;;
20084;SDS011;10202;48.474;9.138;2022-07-11T04:56:20;2.30;;;1.60;;
20084;SDS011;10202;48.474;9.138;2022-07-11T04:58:46;8.20;;;1.65;;
20084;SDS011;10202;48.474;9.138;2022-07-11T05:01:11;2.28;;;1.40;;
20084;SDS011;10202;48.474;9.138;2022-07-11T05:03:37;3.83;;;1.50;;
20084;SDS011;10202;48.474;9.138;2022-07-11T05:06:03;3.72;;;1.30;;
20084;SDS011;10202;48.474;9.138;2022-07-11T05:08:29;3.88;;;1.50;;
20084;SDS011;10202;48.474;9.138;2022-07-11T05:10:54;1.90;;;1.30;;
20084;SDS011;10202;48.474;9.138;2022-07-11T05:13:20;1.65;;;1.23;;
20084;SDS011;10202;48.474;9.138;2022-07-11T05:15:46;1.70;;;1.45;;
20084;SDS011;10202;48.474;9.138;2022-07-11T05:18:11;6.57;;;1.95;;
20084;SDS011;10202;48.474;9.138;2022-07-11T05:20:37;2.53;;;1.58;;
20084;SDS011;10202;48.474;9.138;2022-07-11T05:23:02;2.38;;;1.45;;
20084;SDS011;10202;48.474;9.138;2022-07-11T05:25:28;2.53;;;1.70;;
20084;SDS011;10202;48.474;9.138;2022-07-11T05:27:54;3.15;;;1.80;;
20084;SDS011;10202;48.474;9.138;2022-07-11T05:30:19;2.50;;;1.60;;
20084;SDS011;10202;48.474;9.138;2022-07-11T05:32:45;2.92;;;1.65;;
20084;SDS011;10202;48.474;9.138;2022-07-11T05:35:10;6.82;;;2.03;;
20084;SDS011;10202;48.474;9.138;2022-07-11T05:37:36;11.27;;;2.28;;
20084;SDS011;10202;48.474;9.138;2022-07-11T05:40:02;2.97;;;1.90;;
20084;SDS011;10202;48.474;9.138;2022-07-11T05:42:27;6.10;;;1.80;;
20084;SDS011;10202;48.474;9.138;2022-07-11T05:44:53;6.28;;;2.00;;
20084;SDS011;10202;48.474;9.138;2022-07-11T05:47:19;2.88;;;1.70;;
20084;SDS011;10202;48.474;9.138;2022-07-11T05:49:44;2.42;;;1.80;;
20084;SDS011;10202;48.474;9.138;2022-07-11T05:52:10;3.60;;;1.98;;
20084;SDS011;10202;48.474;9.138;2022-07-11T05:54:35;2.92;;;1.80;;
20084;SDS011;10202;48.474;9.138;2022-07-11T05:57:01;2.10;;;1.83;;
20084;SDS011;10202;48.474;9.138;2022-07-11T05:59:27;5.65;;;2.28;;
20084;SDS011;10202;48.474;9.138;2022-07-11T06:01:53;4.75;;;2.53;;
20084;SDS011;10202;48.474;9.138;2022-07-11T06:04:19;2.53;;;2.22;;
20084;SDS011;10202;48.474;9.138;2022-07-11T06:06:44;6.70;;;2.75;;
20084;SDS011;10202;48.474;9.138;2022-07-11T06:09:10;3.10;;;2.10;;
20084;SDS011;10202;48.474;9.138;2022-07-11T06:11:35;3.45;;;2.25;;
20084;SDS011;10202;48.474;9.138;2022-07-11T06:14:01;4.28;;;2.00;;
20084;SDS011;10202;48.474;9.138;2022-07-11T06:16:26;4.22;;;1.98;;
20084;SDS011;10202;48.474;9.138;2022-07-11T06:18:52;2.70;;;1.70;;
20084;SDS011;10202;48.474;9.138;2022-07-11T06:21:17;3.05;;;1.83;;
20084;SDS011;10202;48.474;9.138;2022-07-11T06:23:45;1.92;;;1.70;;
20084;SDS011;10202;48.474;9.138;2022-07-11T06:26:11;5.35;;;2.13;;
20084;SDS011;10202;48.474;9.138;2022-07-11T06:28:36;5.32;;;2.28;;
20084;SDS011;10202;48.474;9.138;2022-07-11T06:31:03;3.85;;;1.65;;
20084;SDS011;10202;48.474;9.138;2022-07-11T06:33:28;3.75;;;1.90;;
20084;SDS011;10202;48.474;9.138;2022-07-11T06:35:54;3.90;;;2.40;;
20084;SDS011;10202;48.474;9.138;2022-07-11T06:38:19;3.95;;;2.25;;
20084;SDS011;10202;48.474;9.138;2022-07-11T06:40:46;2.47;;;2.28;;
20084;SDS011;10202;48.474;9.138;2022-07-11T06:43:12;3.33;;;2.30;;
20084;SDS011;10202;48.474;9.138;2022-07-11T06:45:38;3.90;;;2.30;;
20084;SDS011;10202;48.474;9.138;2022-07-11T06:48:04;4.00;;;2.60;;
20084;SDS011;10202;48.474;9.138;2022-07-11T06:50:30;5.32;;;3.22;;
20084;SDS011;10202;48.474;9.138;2022-07-11T06:52:56;7.60;;;3.13;;
20084;SDS011;10202;48.474;9.138;2022-07-11T06:55:21;4.25;;;2.95;;
20084;SDS011;10202;48.474;9.138;2022-07-11T06:57:47;7.40;;;2.92;;
20084;SDS011;10202;48.474;9.138;2022-07-11T07:00:12;3.92;;;3.10;;
20084;SDS011;10202;48.474;9.138;2022-07-11T07:02:38;3.85;;;3.00;;
20084;SDS011;10202;48.474;9.138;2022-07-11T07:05:04;5.22;;;3.33;;
20084;SDS011;10202;48.474;9.138;2022-07-11T07:07:30;3.00;;;2.70;;
20084;SDS011;10202;48.474;9.138;2022-07-11T07:09:56;4.50;;;2.97;;
20084;SDS011;10202;48.474;9.138;2022-07-11T07:12:22;3.40;;;3.08;;
20084;SDS011;10202;48.474;9.138;2022-07-11T07:14:47;5.35;;;2.80;;
20084;SDS011;10202;48.474;9.138;2022-07-11T07:17:13;4.70;;;2.67;;
20084;SDS011;10202;48.474;9.138;2022-07-11T07:19:38;3.38;;;2.45;;
20084;SDS011;10202;48.474;9.138;2022-07-11T07:22:04;4.57;;;2.80;;
20084;SDS011;10202;48.474;9.138;2022-07-11T07:24:31;3.42;;;2.78;;
20084;SDS011;10202;48.474;9.138;2022-07-11T07:26:57;5.28;;;2.80;;
20084;SDS011;10202;48.474;9.138;2022-07-11T07:29:22;2.88;;;2.40;;
20084;SDS011;10202;48.474;9.138;2022-07-11T07:31:48;3.10;;;2.80;;
20084;SDS011;10202;48.474;9.138;2022-07-11T07:34:14;4.78;;;2.70;;
20084;SDS011;10202;48.474;9.138;2022-07-11T07:36:39;2.80;;;2.50;;
20084;SDS011;10202;48.474;9.138;2022-07-11T07:39:05;3.05;;;2.60;;
20084;SDS011;10202;48.474;9.138;2022-07-11T07:41:30;2.97;;;2.55;;
20084;SDS011;10202;48.474;9.138;2022-07-11T07:43:56;2.33;;;2.13;;
20084;SDS011;10202;48.474;9.138;2022-07-11T07:46:22;3.10;;;2.35;;
20084;SDS011;10202;48.474;9.138;2022-07-11T07:48:48;3.13;;;2.50;;
20084;SDS011;10202;48.474;9.138;2022-07-11T07:51:13;3.85;;;2.60;;
20084;SDS011;10202;48.474;9.138;2022-07-11T07:53:39;2.20;;;2.00;;
20084;SDS011;10202;48.474;9.138;2022-07-11T07:56:05;3.50;;;2.40;;
20084;SDS011;10202;48.474;9.138;2022-07-11T07:58:31;3.70;;;2.50;;
20084;SDS011;10202;48.474;9.138;2022-07-11T08:00:56;2.58;;;2.38;;
20084;SDS011;10202;48.474;9.138;2022-07-11T08:03:40;2.53;;;2.13;;
20084;SDS011;10202;48.474;9.138;2022-07-11T08:06:05;5.07;;;2.10;;
20084;SDS011;10202;48.474;9.138;2022-07-11T08:08:31;2.67;;;2.00;;
20084;SDS011;10202;48.474;9.138;2022-07-11T08:10:56;2.10;;;1.77;;
20084;SDS011;10202;48.474;9.138;2022-07-11T08:13:26;2.20;;;1.85;;
20084;SDS011;10202;48.474;9.138;2022-07-11T08:15:52;2.03;;;1.83;;
20084;SDS011;10202;48.474;9.138;2022-07-11T08:18:17;2.53;;;1.60;;
20084;SDS011;10202;48.474;9.138;2022-07-11T08:20:42;3.00;;;2.00;;
20084;SDS011;10202;48.474;9.138;2022-07-11T08:23:08;4.28;;;2.00;;
20084;SDS011;10202;48.474;9.138;2022-07-11T08:25:33;2.95;;;2.10;;
20084;SDS011;10202;48.474;9.138;2022-07-11T08:27:59;2.83;;;1.50;;
20084;SDS011;10202;48.474;9.138;2022-07-11T08:30:24;2.33;;;2.00;;
20084;SDS011;10202;48.474;9.138;2022-07-11T08:32:50;4.20;;;2.35;;
20084;SDS011;10202;48.474;9.138;2022-07-11T08:35:16;2.55;;;1.48;;
20084;SDS011;10202;48.474;9.138;2022-07-11T08:37:42;2.05;;;1.27;;
20084;SDS011;10202;48.474;9.138;2022-07-11T08:40:08;1.75;;;1.40;;
20084;SDS011;10202;48.474;9.138;2022-07-11T08:42:36;1.33;;;1.20;;
20084;SDS011;10202;48.474;9.138;2022-07-11T08:45:05;1.20;;;1.10;;
20084;SDS011;10202;48.474;9.138;2022-07-11T08:47:31;1.30;;;1.20;;
20084;SDS011;10202;48.474;9.138;2022-07-11T08:49:57;1.25;;;1.10;;
20084;SDS011;10202;48.474;9.138;2022-07-11T08:52:23;1.45;;;1.00;;
20084;SDS011;10202;48.474;9.138;2022-07-11T08:54:49;1.73;;;1.50;;
20084;SDS011;10202;48.474;9.138;2022-07-11T08:57:14;1.33;;;1.23;;
20084;SDS011;10202;48.474;9.138;2022-07-11T08:59:40;3.40;;;1.40;;
20084;SDS011;10202;48.474;9.138;2022-07-11T09:02:08;1.42;;;1.33;;
20084;SDS011;10202;48.474;9.138;2022-07-11T09:04:34;1.98;;;1.50;;
20084;SDS011;10202;48.474;9.138;2022-07-11T09:07:00;1.40;;;1.23;;
20084;SDS011;10202;48.474;9.138;2022-07-11T09:09:27;1.10;;;1.00;;
20084;SDS011;10202;48.474;9.138;2022-07-11T09:11:54;2.17;;;0.60;;
20084;SDS011;10202;48.474;9.138;2022-07-11T09:16:54;0.85;;;0.57;;
20084;SDS011;10202;48.474;9.138;2022-07-11T09:19:23;3.03;;;0.90;;
20084;SDS011;10202;48.474;9.138;2022-07-11T09:21:57;0.90;;;0.68;;
20084;SDS011;10202;48.474;9.138;2022-07-11T09:28:10;0.30;;;0.30;;
20084;SDS011;10202;48.474;9.138;2022-07-11T09:30:36;0.75;;;0.50;;
20084;SDS011;10202;48.474;9.138;2022-07-11T09:33:11;3.47;;;0.80;;
20084;SDS011;10202;48.474;9.138;2022-07-11T09:35:41;3.08;;;0.50;;
20084;SDS011;10202;48.474;9.138;2022-07-11T09:40:34;0.65;;;0.50;;
20084;SDS011;10202;48.474;9.138;2022-07-11T09:43:00;0.30;;;0.30;;
20084;SDS011;10202;48.474;9.138;2022-07-11T09:45:27;2.05;;;0.40;;
20084;SDS011;10202;48.474;9.138;2022-07-11T09:47:54;0.30;;;0.30;;
20084;SDS011;10202;48.474;9.138;2022-07-11T09:50:22;0.73;;;0.50;;
20084;SDS011;10202;48.474;9.138;2022-07-11T09:55:37;0.45;;;0.40;;
20084;SDS011;10202;48.474;9.138;2022-07-11T09:58:03;0.50;;;0.30;;
20084;SDS011;10202;48.474;9.138;2022-07-11T10:00:32;0.22;;;0.22;;
20084;SDS011;10202;48.474;9.138;2022-07-11T10:02:59;0.30;;;0.30;;
20084;SDS011;10202;48.474;9.138;2022-07-11T10:05:25;0.40;;;0.40;;
20084;SDS011;10202;48.474;9.138;2022-07-11T10:07:51;0.20;;;0.20;;
20084;SDS011;10202;48.474;9.138;2022-07-11T10:10:17;0.38;;;0.30;;
20084;SDS011;10202;48.474;9.138;2022-07-11T10:12:46;0.70;;;0.50;;
20084;SDS011;10202;48.474;9.138;2022-07-11T10:15:14;0.35;;;0.35;;
20084;SDS011;10202;48.474;9.138;2022-07-11T10:20:21;0.60;;;0.55;;
20084;SDS011;10202;48.474;9.138;2022-07-11T10:23:00;3.03;;;1.70;;
20084;SDS011;10202;48.474;9.138;2022-07-11T10:31:05;0.57;;;0.57;;
20084;SDS011;10202;48.474;9.138;2022-07-11T10:34:02;0.93;;;0.60;;
20084;SDS011;10202;48.474;9.138;2022-07-11T10:36:30;0.45;;;0.45;;
20084;SDS011;10202;48.474;9.138;2022-07-11T10:41:50;0.70;;;0.45;;
20084;SDS011;10202;48.474;9.138;2022-07-11T10:44:15;1.55;;;0.60;;
20084;SDS011;10202;48.474;9.138;2022-07-11T10:46:42;0.90;;;0.68;;
20084;SDS011;10202;48.474;9.138;2022-07-11T10:59:29;0.40;;;0.40;;
20084;SDS011;10202;48.474;9.138;2022-07-11T11:02:11;0.55;;;0.43;;
20084;SDS011;10202;48.474;9.138;2022-07-11T11:04:41;0.50;;;0.50;;
20084;SDS011;10202;48.474;9.138;2022-07-11T11:15:39;0.40;;;0.40;;
20084;SDS011;10202;48.474;9.138;2022-07-11T11:23:33;1.15;;;0.50;;
20084;SDS011;10202;48.474;9.138;2022-07-11T11:26:09;0.60;;;0.60;;
20084;SDS011;10202;48.474;9.138;2022-07-11T11:28:39;0.40;;;0.40;;
20084;SDS011;10202;48.474;9.138;2022-07-11T11:31:23;1.00;;;0.63;;
20084;SDS011;10202;48.474;9.138;2022-07-11T11:33:49;0.63;;;0.60;;
20084;SDS011;10202;48.474;9.138;2022-07-11T11:36:15;1.60;;;0.68;;
20084;SDS011;10202;48.474;9.138;2022-07-11T11:38:42;0.70;;;0.60;;
20084;SDS011;10202;48.474;9.138;2022-07-11T11:41:08;2.67;;;0.60;;
20084;SDS011;10202;48.474;9.138;2022-07-11T11:43:35;0.60;;;0.60;;
20084;SDS011;10202;48.474;9.138;2022-07-11T11:46:01;2.53;;;0.68;;
20084;SDS011;10202;48.474;9.138;2022-07-11T11:53:28;0.98;;;0.70;;
20084;SDS011;10202;48.474;9.138;2022-07-11T11:55:54;0.70;;;0.70;;
20084;SDS011;10202;48.474;9.138;2022-07-11T11:58:20;0.95;;;0.60;;
20084;SDS011;10202;48.474;9.138;2022-07-11T12:00:55;0.57;;;0.57;;
20084;SDS011;10202;48.474;9.138;2022-07-11T12:03:21;4.35;;;0.80;;
20084;SDS011;10202;48.474;9.138;2022-07-11T12:05:54;1.27;;;0.80;;
20084;SDS011;10202;48.474;9.138;2022-07-11T12:08:26;1.38;;;0.75;;
20084;SDS011;10202;48.474;9.138;2022-07-11T12:10:55;1.33;;;0.90;;
20084;SDS011;10202;48.474;9.138;2022-07-11T12:13:21;0.80;;;0.80;;
20084;SDS011;10202;48.474;9.138;2022-07-11T12:15:47;1.00;;;0.80;;
20084;SDS011;10202;48.474;9.138;2022-07-11T12:18:36;1.42;;;0.70;;
20084;SDS011;10202;48.474;9.138;2022-07-11T12:21:09;0.88;;;0.65;;
20084;SDS011;10202;48.474;9.138;2022-07-11T12:23:35;1.23;;;0.82;;
20084;SDS011;10202;48.474;9.138;2022-07-11T12:26:01;1.77;;;0.90;;
20084;SDS011;10202;48.474;9.138;2022-07-11T12:28:26;1.48;;;0.82;;
20084;SDS011;10202;48.474;9.138;2022-07-11T12:30:55;0.73;;;0.60;;
20084;SDS011;10202;48.474;9.138;2022-07-11T12:33:21;0.73;;;0.73;;
20084;SDS011;10202;48.474;9.138;2022-07-11T12:35:53;0.85;;;0.80;;
20084;SDS011;10202;48.474;9.138;2022-07-11T12:38:25;0.80;;;0.80;;
20084;SDS011;10202;48.474;9.138;2022-07-11T12:41:04;2.75;;;1.25;;
20084;SDS011;10202;48.474;9.138;2022-07-11T12:43:43;0.95;;;0.93;;
20084;SDS011;10202;48.474;9.138;2022-07-11T12:46:31;1.08;;;0.93;;
20084;SDS011;10202;48.474;9.138;2022-07-11T12:48:57;1.95;;;0.90;;
20084;SDS011;10202;48.474;9.138;2022-07-11T12:51:26;0.80;;;0.73;;
20084;SDS011;10202;48.474;9.138;2022-07-11T12:53:58;2.55;;;0.90;;
20084;SDS011;10202;48.474;9.138;2022-07-11T12:56:24;0.85;;;0.85;;
20084;SDS011;10202;48.474;9.138;2022-07-11T12:58:49;1.23;;;1.10;;
20084;SDS011;10202;48.474;9.138;2022-07-11T13:01:15;5.90;;;1.10;;
20084;SDS011;10202;48.474;9.138;2022-07-11T13:03:40;2.28;;;0.93;;
20084;SDS011;10202;48.474;9.138;2022-07-11T13:06:06;4.72;;;1.00;;
20084;SDS011;10202;48.474;9.138;2022-07-11T13:08:33;2.08;;;0.80;;
20084;SDS011;10202;48.474;9.138;2022-07-11T13:11:26;2.30;;;0.90;;
20084;SDS011;10202;48.474;9.138;2022-07-11T13:13:51;0.90;;;0.90;;
20084;SDS011;10202;48.474;9.138;2022-07-11T13:16:17;0.88;;;0.88;;
20084;SDS011;10202;48.474;9.138;2022-07-11T13:18:43;1.10;;;1.02;;
20084;SDS011;10202;48.474;9.138;2022-07-11T13:21:10;1.10;;;1.10;;
20084;SDS011;10202;48.474;9.138;2022-07-11T13:23:36;1.30;;;1.20;;
20084;SDS011;10202;48.474;9.138;2022-07-11T13:26:03;0.90;;;0.90;;
20084;SDS011;10202;48.474;9.138;2022-07-11T13:28:29;1.05;;;0.93;;
20084;SDS011;10202;48.474;9.138;2022-07-11T13:30:55;1.77;;;1.10;;
20084;SDS011;10202;48.474;9.138;2022-07-11T13:33:20;1.05;;;0.95;;
20084;SDS011;10202;48.474;9.138;2022-07-11T13:35:46;1.92;;;1.10;;
20084;SDS011;10202;48.474;9.138;2022-07-11T13:38:13;4.47;;;1.10;;
20084;SDS011;10202;48.474;9.138;2022-07-11T13:40:39;1.70;;;1.10;;
20084;SDS011;10202;48.474;9.138;2022-07-11T13:43:05;1.73;;;1.10;;
20084;SDS011;10202;48.474;9.138;2022-07-11T13:45:30;3.72;;;1.10;;
20084;SDS011;10202;48.474;9.138;2022-07-11T13:47:56;1.20;;;1.10;;
20084;SDS011;10202;48.474;9.138;2022-07-11T13:50:23;1.65;;;1.30;;
20084;SDS011;10202;48.474;9.138;2022-07-11T13:52:48;1.13;;;1.10;;
20084;SDS011;10202;48.474;9.138;2022-07-11T13:55:18;0.93;;;0.93;;
20084;SDS011;10202;48.474;9.138;2022-07-11T13:57:45;1.48;;;1.20;;
20084;SDS011;10202;48.474;9.138;2022-07-11T14:00:15;1.25;;;1.15;;
20084;SDS011;10202;48.474;9.138;2022-07-11T14:02:40;2.83;;;1.30;;
20084;SDS011;10202;48.474;9.138;2022-07-11T14:05:06;1.92;;;1.30;;
20084;SDS011;10202;48.474;9.138;2022-07-11T14:07:32;1.30;;;1.20;;
20084;SDS011;10202;48.474;9.138;2022-07-11T14:09:58;1.23;;;1.08;;
20084;SDS011;10202;48.474;9.138;2022-07-11T14:12:24;2.67;;;1.40;;
20084;SDS011;10202;48.474;9.138;2022-07-11T14:14:49;2.08;;;1.17;;
20084;SDS011;10202;48.474;9.138;2022-07-11T14:17:14;1.23;;;1.13;;
20084;SDS011;10202;48.474;9.138;2022-07-11T14:19:40;3.80;;;1.40;;
20084;SDS011;10202;48.474;9.138;2022-07-11T14:22:06;5.40;;;1.27;;
20084;SDS011;10202;48.474;9.138;2022-07-11T14:24:32;2.05;;;1.30;;
20084;SDS011;10202;48.474;9.138;2022-07-11T14:26:58;1.30;;;1.20;;
20084;SDS011;10202;48.474;9.138;2022-07-11T14:29:24;1.58;;;1.38;;
20084;SDS011;10202;48.474;9.138;2022-07-11T14:31:53;1.10;;;1.00;;
20084;SDS011;10202;48.474;9.138;2022-07-11T14:34:22;2.70;;;1.63;;
20084;SDS011;10202;48.474;9.138;2022-07-11T14:36:48;6.47;;;1.40;;
20084;SDS011;10202;48.474;9.138;2022-07-11T14:39:13;1.40;;;1.30;;
20084;SDS011;10202;48.474;9.138;2022-07-11T14:41:39;1.70;;;1.40;;
20084;SDS011;10202;48.474;9.138;2022-07-11T14:44:06;1.35;;;1.25;;
20084;SDS011;10202;48.474;9.138;2022-07-11T14:46:31;1.52;;;1.38;;
20084;SDS011;10202;48.474;9.138;2022-07-11T14:48:57;1.30;;;1.20;;
20084;SDS011;10202;48.474;9.138;2022-07-11T14:51:22;1.52;;;1.42;;
20084;SDS011;10202;48.474;9.138;2022-07-11T14:53:48;4.22;;;1.30;;
20084;SDS011;10202;48.474;9.138;2022-07-11T14:56:13;3.65;;;1.40;;
20084;SDS011;10202;48.474;9.138;2022-07-11T14:58:39;2.20;;;1.40;;
20084;SDS011;10202;48.474;9.138;2022-07-11T15:01:06;2.38;;;1.55;;
20084;SDS011;10202;48.474;9.138;2022-07-11T15:03:31;1.50;;;1.20;;
20084;SDS011;10202;48.474;9.138;2022-07-11T15:06:03;2.13;;;1.40;;
20084;SDS011;10202;48.474;9.138;2022-07-11T15:08:33;1.40;;;1.30;;
20084;SDS011;10202;48.474;9.138;2022-07-11T15:11:17;1.98;;;1.20;;
20084;SDS011;10202;48.474;9.138;2022-07-11T15:14:01;4.78;;;1.50;;
20084;SDS011;10202;48.474;9.138;2022-07-11T15:16:27;2.80;;;1.40;;
20084;SDS011;10202;48.474;9.138;2022-07-11T15:18:55;3.53;;;1.50;;
20084;SDS011;10202;48.474;9.138;2022-07-11T15:21:22;1.27;;;1.23;;
20084;SDS011;10202;48.474;9.138;2022-07-11T15:23:47;1.95;;;1.42;;
20084;SDS011;10202;48.474;9.138;2022-07-11T15:26:13;1.67;;;1.40;;
20084;SDS011;10202;48.474;9.138;2022-07-11T15:28:38;1.60;;;1.50;;
20084;SDS011;10202;48.474;9.138;2022-07-11T15:31:04;1.40;;;1.30;;
20084;SDS011;10202;48.474;9.138;2022-07-11T15:33:31;1.30;;;1.20;;
20084;SDS011;10202;48.474;9.138;2022-07-11T15:35:56;1.55;;;1.45;;
20084;SDS011;10202;48.474;9.138;2022-07-11T15:38:21;1.67;;;1.50;;